Etusivu
METAR-TAF:

METAR-TAF

Lentoasemat :

Angoon, Alaska, Yhdysvallat

Leveyspiiri: 57-30N, Pituuspiiri: 134-35W, korkeus merenpinnasta: 0 m

Tämänhetkinen sää

Tämä raportti tehtiin 38 minuuttia sitten, kello 05.56 UTC
Tuuli 4 kn idästä/koillisesta
Lämpötila -1°C
Kosteus 69%
Ilmanpaine 1004 hPa
Näkyvyys: 16.1 km
Pilvistä 6000 ft:n korkeudessa

METAR: PAGN 200556Z AUTO 07004KT 10SM OVC060 M01/M06 A2966 RMK AO2 SLP033 T10111061 10000 21011 53028 FZRANO

Aika: 21:34 (06:34 UTC)


TAF: puuttuu

Säähavainnot ja -ennusteet yli 4000 lentoasemalta (METAR- ja TAF-raportit).

Käytössä olevat sääasemat on merkitty karttaan keltaisilla ja punaisilla pisteillä.

Aseta hiiri pisteen päälle nähdäksesi sääaseman nimen.

Klikkaa sitten nähdäksesi säähavainnot ja -ennusteet.

Kartan vaihtaminen: klikkaa mustalla rastilla varustettuja vihreitä pisteitä, niin voit zoomata sisään; viivalla varustettua vihreää pistettä, niin voit zoomata ulos tai vihreitä nuolia, niin pääset viereisille kartoille.


METAR-TAF: